Weather at Long Akah Airport

Public forecast

Using degrees Celsius for public forecast. Weather courtesy of forecast.io.

Closest aviation weather report (METAR) to Long Akah Airport

Closest report is Miri Airport, 77.7 nm (143.9 km) NW. Retrieved 2021/10/22 10:00 UTC (16 minutes ago):

WBGR 221000Z 26003KT 210V320 9999 SCT016 28/24 Q1010

Closest aviation forecast (TAF) to Long Akah Airport

Closest forecast is Miri Airport, 77.7 nm (143.9 km) NW. Retrieved 2021/10/22 06:00 UTC (4 hours ago):

TAF WBGR 220500Z 2206/2306 34007KT 9999 SCT016 TEMPO 2206/2209 3000 TSRA FEW015CB TEMPO 2214/2217 3000 TSRA FEW015CB